Aérodrome :
LOGIN :

S'inscrire | Disclaimer

   EN    FR    IT 

 










Légende :    VFR   VFR Marginal   IFR   IFR Intensif   IFR Très Intensif
Visi : 
Plafond : 
>= 8 km
>= 3000ft
5 à 8 km
1000 à 3000 ft
1500m à 5 km
500 à 1000 ft
800 à 1500m
200 à 500 ft
< 800m
< 200 ft
Symboles :   Orages  Brouillard  Fortes neiges  Fortes précipitations  Vent > 20 kt
SIGMETs :   Divers  Orages  Givrage  Turbulence  Onde Orograph.  Cendres Volcan.







- Altitude de l'aérodrome : 257 ft
- Code IATA : MAN
- Voir les cartes d'approche


EGCC - Manchester

DERNIER METAR :
  • 240650Z AUTO 23007KT 9999 FEW036 09/06 Q1013 NOSIG

METARs EXPIRÉS :
  • 240620Z AUTO 23008KT 9999 SCT035 09/05 Q1013 NOSIG
  • 240550Z AUTO 22007KT 170V240 9999 NCD 08/05 Q1012 NOSIG
  • 240520Z AUTO 21005KT 9999 NCD 08/05 Q1012
  • 240450Z AUTO 19004KT 140V240 9999 NCD 08/05 Q1012
  • 240420Z AUTO 21005KT 9999 NCD 08/06 Q1012 NOSIG

TAF TAF EGCC
Valide du 24 à 06h jusqu'au 25 à 12h UTC


240456Z 2406/2512 23008KT 9999 FEW040
TEMPO 2411/2424 6000 RA BKN008
PROB40
TEMPO 2500/2512 7000 SHRA BKN012
ATIS : +44 161 499 2324
Pas de NOTAMs connus pour ce terrain.



MET'MAP, la Météo Aéronautique d'un coup d'oeil ! - Copyright ORBIFLY Décembre 2007 - Disclaimer

ORBIFLY MET'MAP TEAM :

Programmation & Développement : Alexandra Zaïnal
Conception & Développement : Baudouin d'Aumeries
Co-Programmation & Développement : Marc-Olivier Méhu
Soutien technique & logistique : Manuel Goepfert

Contact : metmap@orbifly.com




SOURCES & CREDITS :

   NOAA